sensor_id;sensor_type;location;lat;lon;timestamp;temperature;humidity
69999;DHT22;57339;52.156;5.372;2024-02-21T00:01:40;10.30;99.90
69999;DHT22;57339;52.156;5.372;2024-02-21T00:04:11;10.20;99.90
69999;DHT22;57339;52.156;5.372;2024-02-21T00:06:38;10.20;99.90
69999;DHT22;57339;52.156;5.372;2024-02-21T00:09:05;10.20;99.90
69999;DHT22;57339;52.156;5.372;2024-02-21T00:11:32;10.20;99.90
69999;DHT22;57339;52.156;5.372;2024-02-21T00:13:59;10.20;99.90
69999;DHT22;57339;52.156;5.372;2024-02-21T00:16:26;10.20;99.90
69999;DHT22;57339;52.156;5.372;2024-02-21T00:18:53;10.20;99.90
69999;DHT22;57339;52.156;5.372;2024-02-21T00:21:20;10.20;99.90
69999;DHT22;57339;52.156;5.372;2024-02-21T00:23:47;10.20;99.90
69999;DHT22;57339;52.156;5.372;2024-02-21T00:26:14;10.20;99.90
69999;DHT22;57339;52.156;5.372;2024-02-21T00:28:41;10.20;99.90
69999;DHT22;57339;52.156;5.372;2024-02-21T00:31:08;10.20;99.90
69999;DHT22;57339;52.156;5.372;2024-02-21T00:33:35;10.20;99.90
69999;DHT22;57339;52.156;5.372;2024-02-21T00:36:03;10.20;99.90
69999;DHT22;57339;52.156;5.372;2024-02-21T00:38:30;10.20;99.90
69999;DHT22;57339;52.156;5.372;2024-02-21T00:40:57;10.20;99.90
69999;DHT22;57339;52.156;5.372;2024-02-21T00:43:24;10.20;99.90
69999;DHT22;57339;52.156;5.372;2024-02-21T00:45:52;10.20;99.90
69999;DHT22;57339;52.156;5.372;2024-02-21T00:48:19;10.20;99.90
69999;DHT22;57339;52.156;5.372;2024-02-21T00:50:46;10.20;99.90
69999;DHT22;57339;52.156;5.372;2024-02-21T00:53:13;10.10;99.90
69999;DHT22;57339;52.156;5.372;2024-02-21T00:55:40;10.10;99.90
69999;DHT22;57339;52.156;5.372;2024-02-21T00:58:07;10.10;99.90
69999;DHT22;57339;52.156;5.372;2024-02-21T01:00:34;10.10;99.90
69999;DHT22;57339;52.156;5.372;2024-02-21T01:03:02;10.10;99.90
69999;DHT22;57339;52.156;5.372;2024-02-21T01:05:28;10.10;99.90
69999;DHT22;57339;52.156;5.372;2024-02-21T01:07:56;10.10;99.90
69999;DHT22;57339;52.156;5.372;2024-02-21T01:10:22;10.10;99.90
69999;DHT22;57339;52.156;5.372;2024-02-21T01:12:49;10.10;99.90
69999;DHT22;57339;52.156;5.372;2024-02-21T01:15:17;10.10;99.90
69999;DHT22;57339;52.156;5.372;2024-02-21T01:17:44;10.10;99.90
69999;DHT22;57339;52.156;5.372;2024-02-21T01:20:11;10.10;99.90
69999;DHT22;57339;52.156;5.372;2024-02-21T01:22:41;10.20;99.90
69999;DHT22;57339;52.156;5.372;2024-02-21T01:25:09;10.20;99.90
69999;DHT22;57339;52.156;5.372;2024-02-21T01:27:36;10.20;99.90
69999;DHT22;57339;52.156;5.372;2024-02-21T01:30:03;10.10;99.90
69999;DHT22;57339;52.156;5.372;2024-02-21T01:32:30;10.20;99.90
69999;DHT22;57339;52.156;5.372;2024-02-21T01:34:57;10.20;99.90
69999;DHT22;57339;52.156;5.372;2024-02-21T01:37:24;10.20;99.90
69999;DHT22;57339;52.156;5.372;2024-02-21T01:39:51;10.20;99.90
69999;DHT22;57339;52.156;5.372;2024-02-21T01:42:18;10.20;99.90
69999;DHT22;57339;52.156;5.372;2024-02-21T01:44:46;10.20;99.90
69999;DHT22;57339;52.156;5.372;2024-02-21T01:47:13;10.20;99.90
69999;DHT22;57339;52.156;5.372;2024-02-21T01:49:41;10.20;99.90
69999;DHT22;57339;52.156;5.372;2024-02-21T01:52:12;10.30;99.90
69999;DHT22;57339;52.156;5.372;2024-02-21T01:54:39;10.30;99.90
69999;DHT22;57339;52.156;5.372;2024-02-21T01:57:07;10.30;99.90
69999;DHT22;57339;52.156;5.372;2024-02-21T01:59:35;10.20;99.90
69999;DHT22;57339;52.156;5.372;2024-02-21T02:02:03;10.30;99.90
69999;DHT22;57339;52.156;5.372;2024-02-21T02:04:30;10.30;99.90
69999;DHT22;57339;52.156;5.372;2024-02-21T02:07:00;10.20;99.90
69999;DHT22;57339;52.156;5.372;2024-02-21T02:09:29;10.20;99.90
69999;DHT22;57339;52.156;5.372;2024-02-21T02:11:56;10.20;99.90
69999;DHT22;57339;52.156;5.372;2024-02-21T02:14:23;10.30;99.90
69999;DHT22;57339;52.156;5.372;2024-02-21T02:16:50;10.30;99.90
69999;DHT22;57339;52.156;5.372;2024-02-21T02:19:17;10.30;99.90
69999;DHT22;57339;52.156;5.372;2024-02-21T02:21:50;10.30;99.90
69999;DHT22;57339;52.156;5.372;2024-02-21T02:24:17;10.30;99.90
69999;DHT22;57339;52.156;5.372;2024-02-21T02:26:44;10.20;99.90
69999;DHT22;57339;52.156;5.372;2024-02-21T02:29:11;10.20;99.90
69999;DHT22;57339;52.156;5.372;2024-02-21T02:31:38;10.30;99.90
69999;DHT22;57339;52.156;5.372;2024-02-21T02:34:06;10.30;99.90
69999;DHT22;57339;52.156;5.372;2024-02-21T02:36:33;10.20;99.90
69999;DHT22;57339;52.156;5.372;2024-02-21T02:39:00;10.30;99.90
69999;DHT22;57339;52.156;5.372;2024-02-21T02:41:27;10.30;99.90
69999;DHT22;57339;52.156;5.372;2024-02-21T02:43:54;10.30;99.90
69999;DHT22;57339;52.156;5.372;2024-02-21T02:46:21;10.30;99.90
69999;DHT22;57339;52.156;5.372;2024-02-21T02:48:49;10.30;99.90
69999;DHT22;57339;52.156;5.372;2024-02-21T02:51:16;10.30;99.90
69999;DHT22;57339;52.156;5.372;2024-02-21T02:53:43;10.20;99.90
69999;DHT22;57339;52.156;5.372;2024-02-21T02:56:16;10.30;99.90
69999;DHT22;57339;52.156;5.372;2024-02-21T02:58:43;10.30;99.90
69999;DHT22;57339;52.156;5.372;2024-02-21T03:01:10;10.30;99.90
69999;DHT22;57339;52.156;5.372;2024-02-21T03:03:37;10.30;99.90
69999;DHT22;57339;52.156;5.372;2024-02-21T03:06:05;10.30;99.90
69999;DHT22;57339;52.156;5.372;2024-02-21T03:08:33;10.30;99.90
69999;DHT22;57339;52.156;5.372;2024-02-21T03:11:00;10.30;99.90
69999;DHT22;57339;52.156;5.372;2024-02-21T03:13:27;10.30;99.90
69999;DHT22;57339;52.156;5.372;2024-02-21T03:15:54;10.30;99.90
69999;DHT22;57339;52.156;5.372;2024-02-21T03:18:21;10.20;99.90
69999;DHT22;57339;52.156;5.372;2024-02-21T03:20:48;10.30;99.90
69999;DHT22;57339;52.156;5.372;2024-02-21T03:23:15;10.20;99.90
69999;DHT22;57339;52.156;5.372;2024-02-21T03:25:42;10.20;99.90
69999;DHT22;57339;52.156;5.372;2024-02-21T03:28:08;10.30;99.90
69999;DHT22;57339;52.156;5.372;2024-02-21T03:30:36;10.30;99.90
69999;DHT22;57339;52.156;5.372;2024-02-21T03:33:03;10.20;99.90
69999;DHT22;57339;52.156;5.372;2024-02-21T03:35:30;10.20;99.90
69999;DHT22;57339;52.156;5.372;2024-02-21T03:37:57;10.30;99.90
69999;DHT22;57339;52.156;5.372;2024-02-21T03:40:24;10.20;99.90
69999;DHT22;57339;52.156;5.372;2024-02-21T03:42:51;10.20;99.90
69999;DHT22;57339;52.156;5.372;2024-02-21T03:45:18;10.20;99.90
69999;DHT22;57339;52.156;5.372;2024-02-21T03:47:45;10.20;99.90
69999;DHT22;57339;52.156;5.372;2024-02-21T03:50:12;10.30;99.90
69999;DHT22;57339;52.156;5.372;2024-02-21T03:52:40;10.30;99.90
69999;DHT22;57339;52.156;5.372;2024-02-21T03:55:08;10.20;99.90
69999;DHT22;57339;52.156;5.372;2024-02-21T03:57:34;10.20;99.90
69999;DHT22;57339;52.156;5.372;2024-02-21T04:00:02;10.20;99.90
69999;DHT22;57339;52.156;5.372;2024-02-21T04:02:29;10.20;99.90
69999;DHT22;57339;52.156;5.372;2024-02-21T04:04:56;10.20;99.90
69999;DHT22;57339;52.156;5.372;2024-02-21T04:07:23;10.20;99.90
69999;DHT22;57339;52.156;5.372;2024-02-21T04:09:50;10.10;99.90
69999;DHT22;57339;52.156;5.372;2024-02-21T04:12:17;10.10;99.90
69999;DHT22;57339;52.156;5.372;2024-02-21T04:14:44;10.10;99.90
69999;DHT22;57339;52.156;5.372;2024-02-21T04:17:13;10.10;99.90
69999;DHT22;57339;52.156;5.372;2024-02-21T04:19:40;10.00;99.90
69999;DHT22;57339;52.156;5.372;2024-02-21T04:22:08;10.10;99.90
69999;DHT22;57339;52.156;5.372;2024-02-21T04:24:35;10.10;99.90
69999;DHT22;57339;52.156;5.372;2024-02-21T04:27:01;10.10;99.90
69999;DHT22;57339;52.156;5.372;2024-02-21T04:29:28;10.00;99.90
69999;DHT22;57339;52.156;5.372;2024-02-21T04:31:55;10.00;99.90
69999;DHT22;57339;52.156;5.372;2024-02-21T04:34:22;10.00;99.90
69999;DHT22;57339;52.156;5.372;2024-02-21T04:36:50;10.00;99.90
69999;DHT22;57339;52.156;5.372;2024-02-21T04:39:16;10.00;99.90
69999;DHT22;57339;52.156;5.372;2024-02-21T04:41:43;10.00;99.90
69999;DHT22;57339;52.156;5.372;2024-02-21T04:44:14;10.00;99.90
69999;DHT22;57339;52.156;5.372;2024-02-21T04:46:43;10.10;99.90
69999;DHT22;57339;52.156;5.372;2024-02-21T04:49:13;10.00;99.90
69999;DHT22;57339;52.156;5.372;2024-02-21T04:51:41;10.00;99.90
69999;DHT22;57339;52.156;5.372;2024-02-21T04:54:08;10.00;99.90
69999;DHT22;57339;52.156;5.372;2024-02-21T04:56:35;10.20;99.90
69999;DHT22;57339;52.156;5.372;2024-02-21T04:59:02;10.00;99.90
69999;DHT22;57339;52.156;5.372;2024-02-21T05:01:29;10.00;99.90
69999;DHT22;57339;52.156;5.372;2024-02-21T05:03:56;10.00;99.90
69999;DHT22;57339;52.156;5.372;2024-02-21T05:06:23;9.90;99.90
69999;DHT22;57339;52.156;5.372;2024-02-21T05:08:50;9.90;99.90
69999;DHT22;57339;52.156;5.372;2024-02-21T05:11:17;10.00;99.90
69999;DHT22;57339;52.156;5.372;2024-02-21T05:13:45;9.90;99.90
69999;DHT22;57339;52.156;5.372;2024-02-21T05:16:12;9.90;99.90
69999;DHT22;57339;52.156;5.372;2024-02-21T05:18:40;9.90;99.90
69999;DHT22;57339;52.156;5.372;2024-02-21T05:21:08;9.90;99.90
69999;DHT22;57339;52.156;5.372;2024-02-21T05:23:35;10.00;99.90
69999;DHT22;57339;52.156;5.372;2024-02-21T05:26:02;10.00;99.90
69999;DHT22;57339;52.156;5.372;2024-02-21T05:28:29;10.00;99.90
69999;DHT22;57339;52.156;5.372;2024-02-21T05:30:56;10.00;99.90
69999;DHT22;57339;52.156;5.372;2024-02-21T05:33:23;10.00;99.90
69999;DHT22;57339;52.156;5.372;2024-02-21T05:35:50;10.00;99.90
69999;DHT22;57339;52.156;5.372;2024-02-21T05:38:17;9.90;99.90
69999;DHT22;57339;52.156;5.372;2024-02-21T05:40:45;9.90;99.90
69999;DHT22;57339;52.156;5.372;2024-02-21T05:43:12;9.90;99.90
69999;DHT22;57339;52.156;5.372;2024-02-21T05:45:39;10.00;99.90
69999;DHT22;57339;52.156;5.372;2024-02-21T05:48:06;9.90;99.90
69999;DHT22;57339;52.156;5.372;2024-02-21T05:50:33;10.00;99.90
69999;DHT22;57339;52.156;5.372;2024-02-21T05:53:00;10.00;99.90
69999;DHT22;57339;52.156;5.372;2024-02-21T05:55:27;10.00;99.90
69999;DHT22;57339;52.156;5.372;2024-02-21T05:57:54;9.90;99.90
69999;DHT22;57339;52.156;5.372;2024-02-21T06:00:21;10.00;99.90
69999;DHT22;57339;52.156;5.372;2024-02-21T06:02:48;10.00;99.90
69999;DHT22;57339;52.156;5.372;2024-02-21T06:05:15;9.90;99.90
69999;DHT22;57339;52.156;5.372;2024-02-21T06:07:42;9.90;99.90
69999;DHT22;57339;52.156;5.372;2024-02-21T06:10:10;9.90;99.90
69999;DHT22;57339;52.156;5.372;2024-02-21T06:12:37;9.90;99.90
69999;DHT22;57339;52.156;5.372;2024-02-21T06:15:05;9.90;99.90
69999;DHT22;57339;52.156;5.372;2024-02-21T06:17:32;9.90;99.90
69999;DHT22;57339;52.156;5.372;2024-02-21T06:19:59;9.90;99.90
69999;DHT22;57339;52.156;5.372;2024-02-21T06:22:26;9.90;99.90
69999;DHT22;57339;52.156;5.372;2024-02-21T06:24:53;9.90;99.90
69999;DHT22;57339;52.156;5.372;2024-02-21T06:27:20;9.90;99.90
69999;DHT22;57339;52.156;5.372;2024-02-21T06:29:47;9.90;99.90
69999;DHT22;57339;52.156;5.372;2024-02-21T06:32:14;9.90;99.90
69999;DHT22;57339;52.156;5.372;2024-02-21T06:34:41;9.90;99.90
69999;DHT22;57339;52.156;5.372;2024-02-21T06:37:09;9.90;99.90
69999;DHT22;57339;52.156;5.372;2024-02-21T06:39:37;9.90;99.90
69999;DHT22;57339;52.156;5.372;2024-02-21T06:42:04;9.90;99.90
69999;DHT22;57339;52.156;5.372;2024-02-21T06:44:31;9.90;99.90
69999;DHT22;57339;52.156;5.372;2024-02-21T06:46:58;9.90;99.90
69999;DHT22;57339;52.156;5.372;2024-02-21T06:49:25;9.90;99.90
69999;DHT22;57339;52.156;5.372;2024-02-21T06:51:52;9.90;99.90
69999;DHT22;57339;52.156;5.372;2024-02-21T06:54:19;9.80;99.90
69999;DHT22;57339;52.156;5.372;2024-02-21T06:56:46;9.80;99.90
69999;DHT22;57339;52.156;5.372;2024-02-21T06:59:13;9.80;99.90
69999;DHT22;57339;52.156;5.372;2024-02-21T07:01:40;9.80;99.90
69999;DHT22;57339;52.156;5.372;2024-02-21T07:04:06;9.80;99.90
69999;DHT22;57339;52.156;5.372;2024-02-21T07:06:33;9.90;99.90
69999;DHT22;57339;52.156;5.372;2024-02-21T07:09:02;9.80;99.90
69999;DHT22;57339;52.156;5.372;2024-02-21T07:11:29;9.70;99.90
69999;DHT22;57339;52.156;5.372;2024-02-21T07:13:56;9.70;99.90
69999;DHT22;57339;52.156;5.372;2024-02-21T07:16:23;9.70;99.90
69999;DHT22;57339;52.156;5.372;2024-02-21T07:18:50;9.80;99.90
69999;DHT22;57339;52.156;5.372;2024-02-21T07:21:17;9.70;99.90
69999;DHT22;57339;52.156;5.372;2024-02-21T07:23:44;9.80;99.90
69999;DHT22;57339;52.156;5.372;2024-02-21T07:26:11;9.80;99.90
69999;DHT22;57339;52.156;5.372;2024-02-21T07:28:38;9.70;99.90
69999;DHT22;57339;52.156;5.372;2024-02-21T07:31:05;9.80;99.90
69999;DHT22;57339;52.156;5.372;2024-02-21T07:33:32;9.80;99.90
69999;DHT22;57339;52.156;5.372;2024-02-21T07:35:59;9.80;99.90
69999;DHT22;57339;52.156;5.372;2024-02-21T07:38:26;9.70;99.90
69999;DHT22;57339;52.156;5.372;2024-02-21T07:40:53;9.80;99.90
69999;DHT22;57339;52.156;5.372;2024-02-21T07:43:20;9.70;99.90
69999;DHT22;57339;52.156;5.372;2024-02-21T07:45:47;9.80;99.90
69999;DHT22;57339;52.156;5.372;2024-02-21T07:48:14;9.80;99.90
69999;DHT22;57339;52.156;5.372;2024-02-21T07:50:41;9.80;99.90
69999;DHT22;57339;52.156;5.372;2024-02-21T07:53:09;9.80;99.90
69999;DHT22;57339;52.156;5.372;2024-02-21T07:55:36;9.70;99.90
69999;DHT22;57339;52.156;5.372;2024-02-21T07:58:03;9.80;99.90
69999;DHT22;57339;52.156;5.372;2024-02-21T08:00:30;9.80;99.90
69999;DHT22;57339;52.156;5.372;2024-02-21T08:02:57;9.80;99.90
69999;DHT22;57339;52.156;5.372;2024-02-21T08:05:24;9.80;99.90
69999;DHT22;57339;52.156;5.372;2024-02-21T08:07:51;9.80;99.90
69999;DHT22;57339;52.156;5.372;2024-02-21T08:10:20;9.70;99.90
69999;DHT22;57339;52.156;5.372;2024-02-21T08:12:47;9.80;99.90
69999;DHT22;57339;52.156;5.372;2024-02-21T08:15:14;9.80;99.90
69999;DHT22;57339;52.156;5.372;2024-02-21T08:17:41;9.90;99.90
69999;DHT22;57339;52.156;5.372;2024-02-21T08:20:10;9.90;99.90
69999;DHT22;57339;52.156;5.372;2024-02-21T08:22:37;9.80;99.90
69999;DHT22;57339;52.156;5.372;2024-02-21T08:25:05;9.90;99.90
69999;DHT22;57339;52.156;5.372;2024-02-21T08:27:31;9.90;99.90
69999;DHT22;57339;52.156;5.372;2024-02-21T08:29:58;10.00;99.90
69999;DHT22;57339;52.156;5.372;2024-02-21T08:32:25;10.00;99.90
69999;DHT22;57339;52.156;5.372;2024-02-21T08:34:52;10.00;99.90
69999;DHT22;57339;52.156;5.372;2024-02-21T08:37:19;10.00;99.90
69999;DHT22;57339;52.156;5.372;2024-02-21T08:39:48;10.10;99.90
69999;DHT22;57339;52.156;5.372;2024-02-21T08:42:14;10.00;99.90
69999;DHT22;57339;52.156;5.372;2024-02-21T08:44:41;10.10;99.90
69999;DHT22;57339;52.156;5.372;2024-02-21T08:47:09;10.10;99.90
69999;DHT22;57339;52.156;5.372;2024-02-21T08:49:36;10.10;99.90
69999;DHT22;57339;52.156;5.372;2024-02-21T08:52:04;10.10;99.90
69999;DHT22;57339;52.156;5.372;2024-02-21T08:54:31;10.10;99.90
69999;DHT22;57339;52.156;5.372;2024-02-21T08:56:58;10.20;99.90
69999;DHT22;57339;52.156;5.372;2024-02-21T08:59:25;10.30;99.90
69999;DHT22;57339;52.156;5.372;2024-02-21T09:01:52;10.40;99.90
69999;DHT22;57339;52.156;5.372;2024-02-21T09:04:19;10.40;99.90
69999;DHT22;57339;52.156;5.372;2024-02-21T09:06:47;10.30;99.90
69999;DHT22;57339;52.156;5.372;2024-02-21T09:09:14;10.40;99.90
69999;DHT22;57339;52.156;5.372;2024-02-21T09:11:41;10.40;99.90
69999;DHT22;57339;52.156;5.372;2024-02-21T09:14:08;10.50;99.90
69999;DHT22;57339;52.156;5.372;2024-02-21T09:16:36;10.50;99.90
69999;DHT22;57339;52.156;5.372;2024-02-21T09:19:03;10.50;99.90
69999;DHT22;57339;52.156;5.372;2024-02-21T09:21:31;10.60;99.90
69999;DHT22;57339;52.156;5.372;2024-02-21T09:23:57;10.60;99.90
69999;DHT22;57339;52.156;5.372;2024-02-21T09:26:26;10.50;99.90
69999;DHT22;57339;52.156;5.372;2024-02-21T09:28:55;10.60;99.90
69999;DHT22;57339;52.156;5.372;2024-02-21T09:31:22;10.50;99.90
69999;DHT22;57339;52.156;5.372;2024-02-21T09:33:49;10.50;99.90
69999;DHT22;57339;52.156;5.372;2024-02-21T09:36:16;10.50;99.90
69999;DHT22;57339;52.156;5.372;2024-02-21T09:38:43;10.50;99.90
69999;DHT22;57339;52.156;5.372;2024-02-21T09:41:25;10.60;99.90
69999;DHT22;57339;52.156;5.372;2024-02-21T09:43:53;10.60;99.90
69999;DHT22;57339;52.156;5.372;2024-02-21T09:46:40;10.60;99.90
69999;DHT22;57339;52.156;5.372;2024-02-21T09:49:32;10.60;99.90
69999;DHT22;57339;52.156;5.372;2024-02-21T09:52:04;10.60;99.90
69999;DHT22;57339;52.156;5.372;2024-02-21T09:54:35;10.70;99.90
69999;DHT22;57339;52.156;5.372;2024-02-21T09:57:03;10.70;99.90
69999;DHT22;57339;52.156;5.372;2024-02-21T09:59:31;10.80;99.90
69999;DHT22;57339;52.156;5.372;2024-02-21T10:01:59;10.80;99.90
69999;DHT22;57339;52.156;5.372;2024-02-21T10:04:26;10.90;99.90
69999;DHT22;57339;52.156;5.372;2024-02-21T10:06:54;10.90;99.90
69999;DHT22;57339;52.156;5.372;2024-02-21T10:09:25;10.80;99.90
69999;DHT22;57339;52.156;5.372;2024-02-21T10:11:53;10.80;99.90
69999;DHT22;57339;52.156;5.372;2024-02-21T10:14:20;10.90;99.90
69999;DHT22;57339;52.156;5.372;2024-02-21T10:16:48;10.90;99.90
69999;DHT22;57339;52.156;5.372;2024-02-21T10:19:17;10.90;99.90
69999;DHT22;57339;52.156;5.372;2024-02-21T10:21:45;11.00;99.90
69999;DHT22;57339;52.156;5.372;2024-02-21T10:24:12;10.90;99.90
69999;DHT22;57339;52.156;5.372;2024-02-21T10:26:39;10.90;99.90
69999;DHT22;57339;52.156;5.372;2024-02-21T10:29:06;11.00;99.90
69999;DHT22;57339;52.156;5.372;2024-02-21T10:31:34;11.00;99.90
69999;DHT22;57339;52.156;5.372;2024-02-21T10:34:01;11.10;99.90
69999;DHT22;57339;52.156;5.372;2024-02-21T10:36:29;11.10;99.90
69999;DHT22;57339;52.156;5.372;2024-02-21T10:38:56;11.20;99.90
69999;DHT22;57339;52.156;5.372;2024-02-21T10:41:24;11.20;99.90
69999;DHT22;57339;52.156;5.372;2024-02-21T10:43:54;11.30;99.90
69999;DHT22;57339;52.156;5.372;2024-02-21T10:46:24;11.30;99.90
69999;DHT22;57339;52.156;5.372;2024-02-21T10:49:13;11.30;99.90
69999;DHT22;57339;52.156;5.372;2024-02-21T10:51:44;11.30;99.90
69999;DHT22;57339;52.156;5.372;2024-02-21T10:54:34;11.40;99.90
69999;DHT22;57339;52.156;5.372;2024-02-21T10:57:05;11.30;99.90
69999;DHT22;57339;52.156;5.372;2024-02-21T10:59:34;11.30;99.90
69999;DHT22;57339;52.156;5.372;2024-02-21T11:02:01;11.30;99.90
69999;DHT22;57339;52.156;5.372;2024-02-21T11:04:30;11.30;99.90
69999;DHT22;57339;52.156;5.372;2024-02-21T11:07:01;11.30;99.90
69999;DHT22;57339;52.156;5.372;2024-02-21T11:09:32;11.40;99.90
69999;DHT22;57339;52.156;5.372;2024-02-21T11:12:04;11.40;99.90
69999;DHT22;57339;52.156;5.372;2024-02-21T11:14:33;11.40;99.90
69999;DHT22;57339;52.156;5.372;2024-02-21T11:17:01;11.30;99.90
69999;DHT22;57339;52.156;5.372;2024-02-21T11:19:29;11.30;99.90
69999;DHT22;57339;52.156;5.372;2024-02-21T11:21:57;11.20;99.90
69999;DHT22;57339;52.156;5.372;2024-02-21T11:24:30;11.20;99.90
69999;DHT22;57339;52.156;5.372;2024-02-21T11:27:19;11.20;99.90
69999;DHT22;57339;52.156;5.372;2024-02-21T11:29:47;11.20;99.90
69999;DHT22;57339;52.156;5.372;2024-02-21T11:32:16;11.10;99.90
69999;DHT22;57339;52.156;5.372;2024-02-21T11:35:02;11.10;99.90
69999;DHT22;57339;52.156;5.372;2024-02-21T11:37:32;11.10;99.90
69999;DHT22;57339;52.156;5.372;2024-02-21T11:39:59;11.10;99.90
69999;DHT22;57339;52.156;5.372;2024-02-21T11:42:27;11.00;99.90
69999;DHT22;57339;52.156;5.372;2024-02-21T11:44:55;11.00;99.90
69999;DHT22;57339;52.156;5.372;2024-02-21T11:47:23;10.90;99.90
69999;DHT22;57339;52.156;5.372;2024-02-21T11:49:50;10.90;99.90
69999;DHT22;57339;52.156;5.372;2024-02-21T11:52:17;10.90;99.90
69999;DHT22;57339;52.156;5.372;2024-02-21T11:54:45;10.90;99.90
69999;DHT22;57339;52.156;5.372;2024-02-21T11:57:12;10.80;99.90
69999;DHT22;57339;52.156;5.372;2024-02-21T11:59:40;10.80;99.90
69999;DHT22;57339;52.156;5.372;2024-02-21T12:02:07;10.80;99.90
69999;DHT22;57339;52.156;5.372;2024-02-21T12:04:35;10.90;99.90
69999;DHT22;57339;52.156;5.372;2024-02-21T12:07:04;11.10;99.90
69999;DHT22;57339;52.156;5.372;2024-02-21T12:09:31;11.20;99.90
69999;DHT22;57339;52.156;5.372;2024-02-21T12:12:03;11.20;99.90
69999;DHT22;57339;52.156;5.372;2024-02-21T12:14:32;11.30;99.90
69999;DHT22;57339;52.156;5.372;2024-02-21T12:16:59;11.40;99.90
69999;DHT22;57339;52.156;5.372;2024-02-21T12:19:29;11.50;99.90
69999;DHT22;57339;52.156;5.372;2024-02-21T12:21:56;11.60;99.90
69999;DHT22;57339;52.156;5.372;2024-02-21T12:24:26;11.80;99.90
69999;DHT22;57339;52.156;5.372;2024-02-21T12:26:54;11.80;99.90
69999;DHT22;57339;52.156;5.372;2024-02-21T12:29:22;11.80;99.90
69999;DHT22;57339;52.156;5.372;2024-02-21T12:31:49;11.80;99.90
69999;DHT22;57339;52.156;5.372;2024-02-21T12:34:16;11.80;99.90
69999;DHT22;57339;52.156;5.372;2024-02-21T12:36:58;11.70;99.90
69999;DHT22;57339;52.156;5.372;2024-02-21T12:39:25;11.80;99.90
69999;DHT22;57339;52.156;5.372;2024-02-21T12:41:52;11.80;99.90
69999;DHT22;57339;52.156;5.372;2024-02-21T12:44:19;11.90;99.90
69999;DHT22;57339;52.156;5.372;2024-02-21T12:46:47;11.80;99.90
69999;DHT22;57339;52.156;5.372;2024-02-21T12:49:16;11.80;99.90
69999;DHT22;57339;52.156;5.372;2024-02-21T12:51:45;11.90;99.90
69999;DHT22;57339;52.156;5.372;2024-02-21T12:54:12;11.90;99.90
69999;DHT22;57339;52.156;5.372;2024-02-21T12:56:39;11.80;99.90
69999;DHT22;57339;52.156;5.372;2024-02-21T12:59:06;11.70;99.90
69999;DHT22;57339;52.156;5.372;2024-02-21T13:01:33;11.80;99.90
69999;DHT22;57339;52.156;5.372;2024-02-21T13:04:00;11.80;99.90
69999;DHT22;57339;52.156;5.372;2024-02-21T13:06:27;11.90;99.90
69999;DHT22;57339;52.156;5.372;2024-02-21T13:08:55;11.90;99.90
69999;DHT22;57339;52.156;5.372;2024-02-21T13:11:22;11.90;99.90
69999;DHT22;57339;52.156;5.372;2024-02-21T13:13:49;11.80;99.90
69999;DHT22;57339;52.156;5.372;2024-02-21T13:16:16;11.80;99.90
69999;DHT22;57339;52.156;5.372;2024-02-21T13:18:43;11.90;99.90
69999;DHT22;57339;52.156;5.372;2024-02-21T13:21:11;12.00;99.90
69999;DHT22;57339;52.156;5.372;2024-02-21T13:23:40;12.00;99.90
69999;DHT22;57339;52.156;5.372;2024-02-21T13:26:07;11.90;99.90
69999;DHT22;57339;52.156;5.372;2024-02-21T13:28:34;12.00;99.90
69999;DHT22;57339;52.156;5.372;2024-02-21T13:31:03;12.00;99.90
69999;DHT22;57339;52.156;5.372;2024-02-21T13:33:30;12.00;99.90
69999;DHT22;57339;52.156;5.372;2024-02-21T13:35:58;11.80;99.90
69999;DHT22;57339;52.156;5.372;2024-02-21T13:38:25;11.70;99.90
69999;DHT22;57339;52.156;5.372;2024-02-21T13:40:52;11.70;99.90
69999;DHT22;57339;52.156;5.372;2024-02-21T13:43:19;11.70;99.90
69999;DHT22;57339;52.156;5.372;2024-02-21T13:45:57;11.70;99.90
69999;DHT22;57339;52.156;5.372;2024-02-21T13:48:24;11.70;99.90
69999;DHT22;57339;52.156;5.372;2024-02-21T13:50:51;11.70;99.90
69999;DHT22;57339;52.156;5.372;2024-02-21T13:53:18;11.70;99.90
69999;DHT22;57339;52.156;5.372;2024-02-21T13:55:46;11.60;99.90
69999;DHT22;57339;52.156;5.372;2024-02-21T13:58:13;11.50;99.90
69999;DHT22;57339;52.156;5.372;2024-02-21T14:00:43;11.60;99.90
69999;DHT22;57339;52.156;5.372;2024-02-21T14:03:13;11.70;99.90
69999;DHT22;57339;52.156;5.372;2024-02-21T14:05:41;11.70;99.90
69999;DHT22;57339;52.156;5.372;2024-02-21T14:08:09;11.70;99.90
69999;DHT22;57339;52.156;5.372;2024-02-21T14:10:36;11.60;99.90
69999;DHT22;57339;52.156;5.372;2024-02-21T14:13:04;11.50;99.90
69999;DHT22;57339;52.156;5.372;2024-02-21T14:15:31;11.60;99.90
69999;DHT22;57339;52.156;5.372;2024-02-21T14:17:58;11.50;99.90
69999;DHT22;57339;52.156;5.372;2024-02-21T14:20:25;11.60;99.90
69999;DHT22;57339;52.156;5.372;2024-02-21T14:22:52;11.50;99.90
69999;DHT22;57339;52.156;5.372;2024-02-21T14:25:19;11.50;99.90
69999;DHT22;57339;52.156;5.372;2024-02-21T14:27:47;11.50;99.90
69999;DHT22;57339;52.156;5.372;2024-02-21T14:30:13;11.50;99.90
69999;DHT22;57339;52.156;5.372;2024-02-21T14:32:44;11.40;99.90
69999;DHT22;57339;52.156;5.372;2024-02-21T14:35:11;11.40;99.90
69999;DHT22;57339;52.156;5.372;2024-02-21T14:37:38;11.50;99.90
69999;DHT22;57339;52.156;5.372;2024-02-21T14:40:06;11.40;99.90
69999;DHT22;57339;52.156;5.372;2024-02-21T14:42:33;11.40;99.90
69999;DHT22;57339;52.156;5.372;2024-02-21T14:45:01;11.40;99.90
69999;DHT22;57339;52.156;5.372;2024-02-21T14:47:28;11.40;99.90
69999;DHT22;57339;52.156;5.372;2024-02-21T14:49:55;11.40;99.90
69999;DHT22;57339;52.156;5.372;2024-02-21T14:52:22;11.30;99.90
69999;DHT22;57339;52.156;5.372;2024-02-21T14:54:49;11.30;99.90
69999;DHT22;57339;52.156;5.372;2024-02-21T14:57:16;11.20;99.90
69999;DHT22;57339;52.156;5.372;2024-02-21T14:59:43;11.20;99.90
69999;DHT22;57339;52.156;5.372;2024-02-21T15:02:11;11.20;99.90
69999;DHT22;57339;52.156;5.372;2024-02-21T15:04:38;11.10;99.90
69999;DHT22;57339;52.156;5.372;2024-02-21T15:07:05;11.10;99.90
69999;DHT22;57339;52.156;5.372;2024-02-21T15:09:32;11.10;99.90
69999;DHT22;57339;52.156;5.372;2024-02-21T15:11:59;11.00;99.90
69999;DHT22;57339;52.156;5.372;2024-02-21T15:14:26;11.00;99.90
69999;DHT22;57339;52.156;5.372;2024-02-21T15:16:53;10.80;99.90
69999;DHT22;57339;52.156;5.372;2024-02-21T15:19:20;10.80;99.90
69999;DHT22;57339;52.156;5.372;2024-02-21T15:21:47;10.70;99.90
69999;DHT22;57339;52.156;5.372;2024-02-21T15:24:16;10.60;99.90
69999;DHT22;57339;52.156;5.372;2024-02-21T15:26:43;10.50;99.90
69999;DHT22;57339;52.156;5.372;2024-02-21T15:29:11;10.50;99.90
69999;DHT22;57339;52.156;5.372;2024-02-21T15:31:38;10.40;99.90
69999;DHT22;57339;52.156;5.372;2024-02-21T15:34:05;10.40;99.90
69999;DHT22;57339;52.156;5.372;2024-02-21T15:36:33;10.30;99.90